createdAt,value
2019-02-28T00:01:21.364Z,44.11
2019-02-28T00:06:23.016Z,44.06
2019-02-28T00:11:24.571Z,44.17
2019-02-28T00:16:26.235Z,44.74
2019-02-28T00:21:27.839Z,44.89
2019-02-28T00:26:29.528Z,45.43
2019-02-28T00:31:31.219Z,45.65
2019-02-28T00:36:32.763Z,45.73
2019-02-28T00:41:34.667Z,46.32
2019-02-28T00:46:36.221Z,47.05
2019-02-28T00:51:37.869Z,47.94
2019-02-28T00:56:39.536Z,48.16
2019-02-28T01:01:43.062Z,48.31
2019-02-28T01:06:44.575Z,48.40
2019-02-28T01:11:46.121Z,48.63
2019-02-28T01:16:50.225Z,49.00
2019-02-28T01:21:51.331Z,49.57
2019-02-28T01:26:52.907Z,49.93
2019-02-28T01:31:54.523Z,50.30
2019-02-28T01:36:56.074Z,50.62
2019-02-28T01:41:57.800Z,51.01
2019-02-28T01:46:59.357Z,51.34
2019-02-28T01:52:00.911Z,52.00
2019-02-28T01:57:02.469Z,52.31
2019-02-28T02:02:06.659Z,52.46
2019-02-28T02:07:07.921Z,52.23
2019-02-28T02:12:09.580Z,52.24
2019-02-28T02:17:12.184Z,52.42
2019-02-28T02:22:13.768Z,52.54
2019-02-28T02:27:16.322Z,52.22
2019-02-28T02:32:18.817Z,51.66
2019-02-28T02:37:21.361Z,51.61
2019-02-28T02:42:23.042Z,51.07
2019-02-28T02:47:31.315Z,51.06
2019-02-28T02:52:30.434Z,51.06
2019-02-28T02:57:32.599Z,50.91
2019-02-28T03:02:34.386Z,50.88
2019-02-28T03:07:36.046Z,50.56
2019-02-28T03:12:37.895Z,50.17
2019-02-28T03:17:39.552Z,50.00
2019-02-28T03:22:42.107Z,49.98
2019-02-28T03:27:43.657Z,49.65
2019-02-28T03:32:45.621Z,49.30
2019-02-28T03:37:47.573Z,48.87
2019-02-28T03:42:49.258Z,48.58
2019-02-28T03:47:50.784Z,49.78
2019-02-28T03:52:52.334Z,50.45
2019-02-28T03:57:53.989Z,51.32
2019-02-28T04:02:58.703Z,51.19
2019-02-28T04:07:59.046Z,51.40
2019-02-28T04:13:00.611Z,51.10
2019-02-28T04:18:06.902Z,51.34
2019-02-28T04:23:05.945Z,51.09
2019-02-28T04:28:07.534Z,50.08
2019-02-28T04:33:10.095Z,49.81
2019-02-28T04:38:13.604Z,49.85
2019-02-28T04:43:17.701Z,50.00
2019-02-28T04:48:20.359Z,50.25
2019-02-28T04:53:21.909Z,49.82
2019-02-28T04:58:25.266Z,49.22
2019-02-28T05:03:28.929Z,49.14
2019-02-28T05:08:30.415Z,48.50
2019-02-28T05:13:31.964Z,48.67
2019-02-28T05:18:33.510Z,48.50
2019-02-28T05:23:36.035Z,48.42
2019-02-28T05:28:41.157Z,48.35
2019-02-28T05:33:42.757Z,48.55
2019-02-28T05:38:44.505Z,48.61
2019-02-28T05:43:46.133Z,48.61
2019-02-28T05:48:47.676Z,48.55
2019-02-28T05:53:49.237Z,48.59
2019-02-28T05:58:52.468Z,47.89
2019-02-28T06:03:54.345Z,46.44
2019-02-28T06:08:55.899Z,45.12
2019-02-28T06:13:57.451Z,44.61
2019-02-28T06:18:59.147Z,43.44
2019-02-28T06:24:00.712Z,42.22
2019-02-28T06:29:05.073Z,41.80
2019-02-28T06:34:08.593Z,41.11
2019-02-28T06:39:09.372Z,40.28
2019-02-28T06:44:11.027Z,39.80
2019-02-28T06:49:12.655Z,39.43
2019-02-28T06:54:14.453Z,38.80
2019-02-28T06:59:16.007Z,38.61
2019-02-28T07:04:17.555Z,38.29
2019-02-28T07:09:19.110Z,37.93
2019-02-28T07:14:20.651Z,38.55
2019-02-28T07:19:22.248Z,38.35
2019-02-28T07:24:23.796Z,38.01
2019-02-28T07:29:25.398Z,38.04
2019-02-28T07:34:27.199Z,37.97
2019-02-28T07:39:28.761Z,38.89
2019-02-28T07:44:30.410Z,38.66
2019-02-28T07:49:35.554Z,39.17
2019-02-28T07:54:35.499Z,38.83
2019-02-28T07:59:40.963Z,39.47
2019-02-28T08:04:40.515Z,38.62
2019-02-28T08:09:42.316Z,38.57
2019-02-28T08:14:47.025Z,38.34
2019-02-28T08:19:47.378Z,38.23
2019-02-28T08:24:48.932Z,37.57
2019-02-28T08:29:50.777Z,38.94
2019-02-28T08:34:55.524Z,36.68
2019-02-28T08:39:55.919Z,35.60
2019-02-28T08:44:58.968Z,34.62
2019-02-28T08:50:00.722Z,34.71
2019-02-28T08:55:09.223Z,35.41
2019-02-28T09:00:17.318Z,33.52
2019-02-28T09:05:25.456Z,34.42
2019-02-28T09:10:24.573Z,35.21
2019-02-28T09:15:31.049Z,34.39
2019-02-28T09:20:32.327Z,34.40
2019-02-28T09:25:33.977Z,35.03
2019-02-28T09:30:44.407Z,35.27
2019-02-28T09:35:46.535Z,33.06
2019-02-28T09:40:48.225Z,33.67
2019-02-28T09:45:50.033Z,33.58
2019-02-28T09:50:58.034Z,33.03
2019-02-28T09:55:55.080Z,34.87
2019-02-28T10:00:57.946Z,35.23
2019-02-28T10:05:59.673Z,34.07
2019-02-28T10:11:01.225Z,34.89
2019-02-28T10:16:02.877Z,33.54
2019-02-28T10:21:05.547Z,35.47
2019-02-28T10:26:07.215Z,35.90
2019-02-28T10:31:08.801Z,36.64
2019-02-28T10:36:12.794Z,36.35
2019-02-28T10:41:15.396Z,37.96
2019-02-28T10:46:20.114Z,37.69
2019-02-28T10:51:20.672Z,37.85
2019-02-28T10:56:22.219Z,39.46
2019-02-28T11:01:26.087Z,39.56
2019-02-28T11:06:28.909Z,39.94
2019-02-28T11:11:30.812Z,40.18
2019-02-28T11:16:32.481Z,38.99
2019-02-28T11:21:34.123Z,38.72
2019-02-28T11:26:35.811Z,37.35
2019-02-28T11:31:37.520Z,37.07
2019-02-28T11:36:39.130Z,36.43
2019-02-28T11:41:40.885Z,36.11
2019-02-28T11:46:43.715Z,36.02
2019-02-28T11:51:53.073Z,34.68
2019-02-28T11:56:56.323Z,35.21
2019-02-28T12:01:57.975Z,34.23
2019-02-28T12:07:00.967Z,34.65
2019-02-28T12:12:03.445Z,34.96
2019-02-28T12:17:05.042Z,35.23
2019-02-28T12:22:09.173Z,34.90
2019-02-28T12:27:10.362Z,34.16
2019-02-28T12:32:11.944Z,34.33
2019-02-28T12:37:14.547Z,37.24
2019-02-28T12:42:16.405Z,35.30
2019-02-28T12:47:18.119Z,35.12
2019-02-28T12:52:19.727Z,35.71
2019-02-28T12:57:22.379Z,35.13
2019-02-28T13:02:24.700Z,35.06
2019-02-28T13:07:26.363Z,34.57
2019-02-28T13:12:27.950Z,34.34
2019-02-28T13:17:31.643Z,34.06
2019-02-28T13:22:34.083Z,34.20
2019-02-28T13:27:36.622Z,34.72
2019-02-28T13:32:39.334Z,34.57
2019-02-28T13:37:42.264Z,33.17
2019-02-28T13:42:44.656Z,32.34
2019-02-28T13:47:47.863Z,32.43
2019-02-28T13:52:52.149Z,33.33
2019-02-28T13:57:53.237Z,33.54
2019-02-28T14:02:57.612Z,34.20
2019-02-28T14:07:59.377Z,32.71
2019-02-28T14:13:01.230Z,33.31
2019-02-28T14:18:03.778Z,33.96
2019-02-28T14:23:08.441Z,33.94
2019-02-28T14:28:10.000Z,34.60
2019-02-28T14:33:11.751Z,33.87
2019-02-28T14:38:13.413Z,35.05
2019-02-28T14:43:15.133Z,36.38
2019-02-28T14:48:17.117Z,36.96
2019-02-28T14:53:18.807Z,35.79
2019-02-28T14:58:22.324Z,36.43
2019-02-28T15:03:24.251Z,36.58
2019-02-28T15:08:27.102Z,37.56
2019-02-28T15:13:30.432Z,38.56
2019-02-28T15:18:32.769Z,38.79
2019-02-28T15:23:35.131Z,37.00
2019-02-28T15:28:36.798Z,37.21
2019-02-28T15:33:38.375Z,37.63
2019-02-28T15:38:41.913Z,39.20
2019-02-28T15:43:44.540Z,40.12
2019-02-28T15:48:46.165Z,40.42
2019-02-28T15:53:49.599Z,39.74
2019-02-28T15:58:51.611Z,39.94
2019-02-28T16:03:53.279Z,40.16
2019-02-28T16:08:54.880Z,40.25
2019-02-28T16:13:57.505Z,41.80
2019-02-28T16:18:59.226Z,41.11
2019-02-28T16:24:02.047Z,42.27
2019-02-28T16:29:04.448Z,42.77
2019-02-28T16:34:08.364Z,42.64
2019-02-28T16:39:09.767Z,43.24
2019-02-28T16:44:12.396Z,44.63
2019-02-28T16:49:14.182Z,44.78
2019-02-28T16:54:15.741Z,45.30
2019-02-28T16:59:17.290Z,45.79
2019-02-28T17:04:18.843Z,45.62
2019-02-28T17:09:22.393Z,46.16
2019-02-28T17:14:24.151Z,46.53
2019-02-28T17:19:28.631Z,46.01
2019-02-28T17:24:29.248Z,46.38
2019-02-28T17:29:32.763Z,46.81
2019-02-28T17:34:34.374Z,46.18
2019-02-28T17:39:35.916Z,46.87
2019-02-28T17:44:45.973Z,47.30
2019-02-28T17:50:27.531Z,47.32
2019-02-28T17:56:22.820Z,47.50
2019-02-28T18:01:32.795Z,48.10
2019-02-28T18:07:00.598Z,48.40
2019-02-28T18:12:27.405Z,48.67
2019-02-28T18:18:08.888Z,48.88
2019-02-28T18:23:35.655Z,49.17
2019-02-28T18:28:51.764Z,49.61
2019-02-28T18:33:56.904Z,49.78
2019-02-28T18:38:58.671Z,50.66
2019-02-28T18:44:03.738Z,51.14
2019-02-28T18:49:03.899Z,51.51
2019-02-28T18:54:05.529Z,51.93
2019-02-28T18:59:07.090Z,52.09
2019-02-28T19:04:08.709Z,52.28
2019-02-28T19:09:21.377Z,52.69
2019-02-28T19:14:23.160Z,53.05
2019-02-28T19:19:24.824Z,53.40
2019-02-28T19:24:26.764Z,54.00
2019-02-28T19:29:28.462Z,54.35
2019-02-28T19:34:30.094Z,54.93
2019-02-28T19:39:31.658Z,55.57
2019-02-28T19:44:33.317Z,56.01
2019-02-28T19:49:34.978Z,56.17
2019-02-28T19:54:36.682Z,56.35
2019-02-28T19:59:38.237Z,56.65
2019-02-28T20:04:40.862Z,56.95
2019-02-28T20:09:42.645Z,57.06
2019-02-28T20:14:44.766Z,57.33
2019-02-28T20:19:46.357Z,57.42
2019-02-28T20:24:47.913Z,57.50
2019-02-28T20:29:55.078Z,57.69
2019-02-28T20:34:53.248Z,57.86
2019-02-28T20:39:54.903Z,57.89
2019-02-28T20:44:56.573Z,57.92
2019-02-28T20:49:58.332Z,58.53
2019-02-28T20:54:59.945Z,58.65
2019-02-28T21:00:08.354Z,58.85
2019-02-28T21:05:10.164Z,59.44
2019-02-28T21:10:12.021Z,59.40
2019-02-28T21:15:13.783Z,59.67
2019-02-28T21:20:15.759Z,59.96
2019-02-28T21:25:17.648Z,60.35
2019-02-28T21:30:26.667Z,60.70
2019-02-28T21:35:28.783Z,60.92
2019-02-28T21:40:30.639Z,60.80
2019-02-28T21:45:33.695Z,61.05
2019-02-28T21:50:35.555Z,60.93
2019-02-28T21:55:37.283Z,61.55
2019-02-28T22:00:39.048Z,61.21
2019-02-28T22:05:41.017Z,61.53
2019-02-28T22:10:42.587Z,61.83
2019-02-28T22:15:44.149Z,62.12
2019-02-28T22:20:45.704Z,62.36
2019-02-28T22:25:47.364Z,62.24
2019-02-28T22:30:49.949Z,62.67
2019-02-28T22:35:53.479Z,63.03
2019-02-28T22:40:55.040Z,63.19
2019-02-28T22:45:56.655Z,63.48
2019-02-28T22:50:58.233Z,63.25
2019-02-28T22:55:59.875Z,63.33
2019-02-28T23:01:15.710Z,63.07
2019-02-28T23:06:17.365Z,63.27
2019-02-28T23:11:19.181Z,63.37
2019-02-28T23:16:20.840Z,63.70
2019-02-28T23:21:22.390Z,63.74
2019-02-28T23:26:24.451Z,64.18
2019-02-28T23:31:55.613Z,64.12
2019-02-28T23:36:57.202Z,64.37
2019-02-28T23:41:58.807Z,64.46
2019-02-28T23:47:00.386Z,64.21
2019-02-28T23:52:01.936Z,64.63
2019-02-28T23:57:03.559Z,64.76
